Pagrindinis puslapis
METAR-TAF:

METAR-TAF

Oro uostai :

Pecos, Teksasas, Jungtinės Amerikos Valstijos

platuma: 31-22-56N, ilguma: 103-30-38W, Aukštis: 796 m

Dabartinis oras

Ataskaita buvo paskelbta 35 minutes, ne 17:50 UTC
Ramus vėjas
Temperatūra 27°C
Drėgmė 54%
Slėgis 1021 hPa
Matomumas: 16.1 km
Išsisklaidę debesys ne aukštis 4100 ft

METAR: KPEQ 031750Z AUTO 00000KT 10SM SCT041 27/17 A3015 RMK AO2 LTG DSNT S T02710170 PWINO

Laikas: 13:25 (18:25 UTC)

Prognozė

Ataskaita buvo paskelbta 1 valandą ir 5 minutes, ne 17:20 UTC
Prognozė galioja nuo 03 metu 18 UTC su 04 metu 18 UTC
Vėjas 9 kt iš Rytų
Matomumas: 10 km
Giedras dangus

TAF: KPEQ 031720Z 0318/0418 09009KT P6SM SKC

Orai ataskaitas ir orų prognozės (METAR, TAF).

turimą stotys yra geltonos ir raudonos taškus žemėlapyje.

Perkelti pele per norėdami pamatyti stoties vardą.

Tada spustelėkite, norėdami matyti oro stebėjimo ir prognozės.

Norėdami pakeisti žemėlapį: spustelėkite ant žalios mygtukų su juodo kryžiaus žemyn,; žalią mygtuką su brūkšneliu, jei norite nutolinti; arba žalių rodyklių gretimoms žemėlapius.


METAR-TAF: